Map

Track Data

SID SEASON NUMBER BASIN SUBBASIN NAME ISO_TIME NATURE LAT LON WMO_WIND WMO_PRES WMO_AGENCY TRACK_TYPE DIST2LAND LANDFALL IFLAG USA_AGENCY USA_ATCF_ID USA_LAT USA_LON USA_RECORD USA_STATUS USA_WIND USA_PRES USA_SSHS USA_R34_NE USA_R34_SE USA_R34_SW USA_R34_NW USA_R50_NE USA_R50_SE USA_R50_SW USA_R50_NW USA_R64_NE USA_R64_SE USA_R64_SW USA_R64_NW USA_POCI USA_ROCI USA_RMW USA_EYE TOKYO_LAT TOKYO_LON TOKYO_GRADE TOKYO_WIND TOKYO_PRES TOKYO_R50_DIR TOKYO_R50_LONG TOKYO_R50_SHORT TOKYO_R30_DIR TOKYO_R30_LONG TOKYO_R30_SHORT TOKYO_LAND CMA_LAT CMA_LON CMA_CAT CMA_WIND CMA_PRES HKO_LAT HKO_LON HKO_CAT HKO_WIND HKO_PRES NEWDELHI_LAT NEWDELHI_LON NEWDELHI_GRADE NEWDELHI_WIND NEWDELHI_PRES NEWDELHI_CI NEWDELHI_DP NEWDELHI_POCI REUNION_LAT REUNION_LON REUNION_TYPE REUNION_WIND REUNION_PRES REUNION_TNUM REUNION_CI REUNION_RMW REUNION_R34_NE REUNION_R34_SE REUNION_R34_SW REUNION_R34_NW REUNION_R50_NE REUNION_R50_SE REUNION_R50_SW REUNION_R50_NW REUNION_R64_NE REUNION_R64_SE REUNION_R64_SW REUNION_R64_NW BOM_LAT BOM_LON BOM_TYPE BOM_WIND BOM_PRES BOM_TNUM BOM_CI BOM_RMW BOM_R34_NE BOM_R34_SE BOM_R34_SW BOM_R34_NW BOM_R50_NE BOM_R50_SE BOM_R50_SW BOM_R50_NW BOM_R64_NE BOM_R64_SE BOM_R64_SW BOM_R64_NW BOM_ROCI BOM_POCI BOM_EYE BOM_POS_METHOD BOM_PRES_METHOD NADI_LAT NADI_LON NADI_CAT NADI_WIND NADI_PRES WELLINGTON_LAT WELLINGTON_LON WELLINGTON_WIND WELLINGTON_PRES DS824_LAT DS824_LON DS824_STAGE DS824_WIND DS824_PRES TD9636_LAT TD9636_LON TD9636_STAGE TD9636_WIND TD9636_PRES TD9635_LAT TD9635_LON TD9635_WIND TD9635_PRES TD9635_ROCI NEUMANN_LAT NEUMANN_LON NEUMANN_CLASS NEUMANN_WIND NEUMANN_PRES MLC_LAT MLC_LON MLC_CLASS MLC_WIND MLC_PRES USA_GUST BOM_GUST BOM_GUST_PER REUNION_GUST REUNION_GUST_PER USA_SEAHGT USA_SEARAD_NE USA_SEARAD_SE USA_SEARAD_SW USA_SEARAD_NW STORM_SPEED STORM_DIR
1944237N21091 1944 53 NI BB NOT_NAMED 1944-08-24 00:00:00 TS 21.1000 90.5000 main 84 56 _________O____ -1 21.1000 90.5000 TC 30 5 323
1944237N21091 1944 53 NI BB NOT_NAMED 1944-08-24 03:00:00 TS 21.3051 90.3335 main 56 22 _________PO___ -1 21.4076 90.2502 TC 30 21.1000 90.5000 1 6 322
1944237N21091 1944 53 NI BB NOT_NAMED 1944-08-24 06:00:00 TS 21.5763 90.1028 main 22 10 _________OP___ -1 21.7000 90.0000 TC 30 21.3909 90.2570 1 7 321
1944237N21091 1944 53 NI BB NOT_NAMED 1944-08-24 09:00:00 TS 21.8408 89.8617 main 10 0 _________PP___ -1 21.9650 89.7499 TC 30 21.6753 90.0108 1 7 319
1944237N21091 1944 53 NI BB NOT_NAMED 1944-08-24 12:00:00 TS 22.0735 89.6296 main 0 0 _________OP___ -1 22.2000 89.5000 TC 30 21.9470 89.7592 1 6 316
1944237N21091 1944 53 NI BB NOT_NAMED 1944-08-24 15:00:00 TS 22.3037 89.3787 main 0 0 _________PO___ -1 22.4074 89.2574 TC 30 22.2000 89.5000 1 7 313
1944237N21091 1944 53 NI BB NOT_NAMED 1944-08-24 18:00:00 TS 22.5148 89.1160 main 0 0 _________OP___ -1 22.6000 89.0000 TC 30 22.4296 89.2319 1 7 309
1944237N21091 1944 53 NI BB NOT_NAMED 1944-08-24 21:00:00 TS 22.7225 88.8286 main 0 0 _________PP___ -1 22.8075 88.7000 TC 30 22.6374 88.9572 1 7 307
1944237N21091 1944 53 NI BB NOT_NAMED 1944-08-25 00:00:00 TS 22.9132 88.5394 main 0 0 _________OP___ -1 23.0000 88.4000 TC 30 22.8265 88.6789 1 6 305
1944237N21091 1944 53 NI BB NOT_NAMED 1944-08-25 03:00:00 TS 23.0787 88.2749 main 0 0 _________PO___ -1 23.1574 88.1498 TC 30 23.0000 88.4000 1 6 304
1944237N21091 1944 53 NI BB NOT_NAMED 1944-08-25 06:00:00 TS 23.2382 88.0145 main 0 0 _________OP___ -1 23.3000 87.9000 TC 30 23.1764 88.1289 1 6 303
1944237N21091 1944 53 NI BB NOT_NAMED 1944-08-25 09:00:00 TS 23.3974 87.7324 main 0 0 _________PP___ -1 23.4575 87.6075 TC 30 23.3372 87.8573 1 6 300
1944237N21091 1944 53 NI BB NOT_NAMED 1944-08-25 12:00:00 TS 23.5397 87.4410 main 0 0 _________OP___ -1 23.6000 87.3000 TC 30 23.4795 87.5821 1 6 296
1944237N21091 1944 53 NI BB NOT_NAMED 1944-08-25 15:00:00 TS 23.6575 87.1500 main 0 0 _________PO___ -1 23.7149 87.0000 TC 30 23.6000 87.3000 1 6 291
1944237N21091 1944 53 NI BB NOT_NAMED 1944-08-25 18:00:00 TS 23.7524 86.8434 main 0 0 _________OP___ -1 23.8000 86.7000 TC 30 23.7048 86.9868 1 6 287
1944237N21091 1944 53 NI BB NOT_NAMED 1944-08-25 21:00:00 TS 23.8264 86.5274 main 0 0 _________PP___ -1 23.8650 86.3850 TC 30 23.7877 86.6699 1 6 282
1944237N21091 1944 53 NI BB NOT_NAMED 1944-08-26 00:00:00 TS 23.8759 86.2340 main 0 0 _________OP___ -1 23.9000 86.1000 TC 30 23.8517 86.3681 1 5 279
1944237N21091 1944 53 NI BB NOT_NAMED 1944-08-26 03:00:00 TS 23.9000 85.9887 main 0 0 _________PO___ -1 23.8999 85.8774 TC 30 23.9000 86.1000 1 4 276
1944237N21091 1944 53 NI BB NOT_NAMED 1944-08-26 06:00:00 TS 23.9155 85.7924 main 0 0 _________OP___ -1 23.9000 85.7000 TC 30 23.9310 85.8847 1 3 278
1944237N21091 1944 53 NI BB NOT_NAMED 1944-08-26 09:00:00 TS 23.9461 85.6236 main 0 0 _________PP___ -1 23.9425 85.5425 TC 30 23.9496 85.7047 1 3 283
1944237N21091 1944 53 NI BB NOT_NAMED 1944-08-26 12:00:00 TS 23.9843 85.4736 main 0 0 _________OP___ -1 24.0000 85.4000 TC 30 23.9685 85.5473 1 3 285
1944237N21091 1944 53 NI BB NOT_NAMED 1944-08-26 15:00:00 TS 24.0212 85.3250 main 0 0 _________PO___ -1 24.0425 85.2500 TC 30 24.0000 85.4000 1 3 289
1944237N21091 1944 53 NI BB NOT_NAMED 1944-08-26 18:00:00 TS 24.0761 85.1835 main 0 0 _________OP___ -1 24.1000 85.1000 TC 30 24.0522 85.2670 1 3 298
1944237N21091 1944 53 NI BB NOT_NAMED 1944-08-26 21:00:00 TS 24.1560 85.0548 main 0 0 _________PP___ -1 24.1924 84.9725 TC 30 24.1195 85.1372 1 3 304
1944237N21091 1944 53 NI BB NOT_NAMED 1944-08-27 00:00:00 TS 24.2511 84.8944 main 0 0 _________OP___ -1 24.3000 84.8000 TC 30 24.2021 84.9888 1 4 298
1944237N21091 1944 53 NI BB NOT_NAMED 1944-08-27 03:00:00 TS 24.3463 84.6612 main 0 0 _________PO___ -1 24.3926 84.5224 TC 30 24.3000 84.8000 1 5 293
1944237N21091 1944 53 NI BB NOT_NAMED 1944-08-27 06:00:00 TS 24.4534 84.3655 main 0 0 _________OP___ -1 24.5000 84.2000 TC 30 24.4069 84.5311 1 6 294
1944237N21091 1944 53 NI BB NOT_NAMED 1944-08-27 09:00:00 TS 24.5852 84.0576 main 0 0 _________PP___ -1 24.6425 83.8925 TC 30 24.5280 84.2227 1 6 296
1944237N21091 1944 53 NI BB NOT_NAMED 1944-08-27 12:00:00 TS 24.7300 83.7515 main 0 0 _________OP___ -1 24.8000 83.6000 TC 30 24.6600 83.9029 1 6 298
1944237N21091 1944 53 NI BB NOT_NAMED 1944-08-27 15:00:00 TS 24.8750 83.4675 main 0 0 _________PO___ -1 24.9500 83.3349 TC 30 24.8000 83.6000 1 6 302
1944237N21091 1944 53 NI BB NOT_NAMED 1944-08-27 18:00:00 TS 25.0253 83.2267 main 0 0 _________OP___ -1 25.1000 83.1000 TC 30 24.9506 83.3533 1 5 307
1944237N21091 1944 53 NI BB NOT_NAMED 1944-08-27 21:00:00 TS 25.1823 83.0137 main 0 0 _________PP___ -1 25.2574 82.8999 TC 30 25.1071 83.1274 1 5 309
1944237N21091 1944 53 NI BB NOT_NAMED 1944-08-28 00:00:00 TS 25.3300 82.8064 main 0 0 _________OP___ -1 25.4000 82.7000 TC 30 25.2601 82.9127 1 5 304
1944237N21091 1944 53 NI BB NOT_NAMED 1944-08-28 03:00:00 TS 25.4538 82.5750 main 0 0 _________PO___ -1 25.5075 82.4500 TC 30 25.4000 82.7000 1 5 298
1944237N21091 1944 53 NI BB NOT_NAMED 1944-08-28 06:00:00 TS 25.5552 82.3313 main 0 0 _________OP___ -1 25.6000 82.2000 TC 30 25.5103 82.4626 1 5 295
1944237N21091 1944 53 NI BB NOT_NAMED 1944-08-28 09:00:00 TS 25.6538 82.1061 main 0 0 _________PP___ -1 25.7000 81.9850 TC 30 25.6075 82.2272 1 4 297
1944237N21091 1944 53 NI BB NOT_NAMED 1944-08-28 12:00:00 TS 25.7505 81.9016 main 0 0 _________OP___ -1 25.8000 81.8000 TC 30 25.7010 82.0033 1 4 299
1944237N21091 1944 53 NI BB NOT_NAMED 1944-08-28 15:00:00 TS 25.8462 81.7212 main 0 0 _________PO___ -1 25.8925 81.6424 TC 30 25.8000 81.8000 1 4 305
1944237N21091 1944 53 NI BB NOT_NAMED 1944-08-28 18:00:00 TS 25.9650 81.5561 main 0 0 _________OP___ -1 26.0000 81.5000 TC 30 25.9299 81.6122 1 4 312
1944237N21091 1944 53 NI BB NOT_NAMED 1944-08-28 21:00:00 TS 26.1112 81.3913 main 0 0 _________PP___ -1 26.1575 81.3351 TC 30 26.0649 81.4476 1 4 316
1944237N21091 1944 53 NI BB NOT_NAMED 1944-08-29 00:00:00 TS 26.2462 81.2546 main 0 0 _________OP___ -1 26.3000 81.2000 TC 30 26.1925 81.3091 1 3 318
1944237N21091 1944 53 NI BB NOT_NAMED 1944-08-29 03:00:00 TS 26.3325 81.1675 main 0 0 _________PO___ -1 26.3650 81.1349 TC 30 26.3000 81.2000 1 2 317
1944237N21091 1944 53 NI BB NOT_NAMED 1944-08-29 06:00:00 TS 26.3796 81.1125 main 0 0 _________OP___ -1 26.4000 81.1000 TC 30 26.3593 81.1251 1 1 315
1944237N21091 1944 53 NI BB NOT_NAMED 1944-08-29 09:00:00 TS 26.4212 81.0673 main 0 0 _________PP___ -1 26.4425 81.0575 TC 30 26.3999 81.0772 1 1 320
1944237N21091 1944 53 NI BB NOT_NAMED 1944-08-29 12:00:00 TS 26.4703 81.0204 main 0 0 _________OP___ -1 26.5000 81.0000 TC 30 26.4405 81.0407 1 2 320
1944237N21091 1944 53 NI BB NOT_NAMED 1944-08-29 15:00:00 TS 26.5425 80.9500 main 0 0 _________PO___ -1 26.5850 80.9000 TC 30 26.5000 81.0000 1 2 323
1944237N21091 1944 53 NI BB NOT_NAMED 1944-08-29 18:00:00 TS 26.6537 80.8681 main 0 0 _________OP___ -1 26.7000 80.8000 TC 30 26.6075 80.9363 1 3 333
1944237N21091 1944 53 NI BB NOT_NAMED 1944-08-29 21:00:00 TS 26.7925 80.8075 main 0 0 _________PP___ -1 26.8500 80.7500 TC 30 26.7350 80.8650 1 3 338
1944237N21091 1944 53 NI BB NOT_NAMED 1944-08-30 00:00:00 TS 26.9350 80.7431 main 0 0 _________OP___ -1 27.0000 80.7000 TC 30 26.8700 80.7863 1 3 332
1944237N21091 1944 53 NI BB NOT_NAMED 1944-08-30 03:00:00 TS 27.0538 80.6537 main 0 0 _________PO___ -1 27.1075 80.6075 TC 30 27.0000 80.7000 1 3 322
1944237N21091 1944 53 NI BB NOT_NAMED 1944-08-30 06:00:00 TS 27.1577 80.5516 main 0 0 _________OP___ -1 27.2000 80.5000 TC 30 27.1153 80.6031 1 3 318
1944237N21091 1944 53 NI BB NOT_NAMED 1944-08-30 09:00:00 TS 27.2650 80.4463 main 0 0 _________PP___ -1 27.3075 80.3925 TC 30 27.2225 80.5000 1 3 318
1944237N21091 1944 53 NI BB NOT_NAMED 1944-08-30 12:00:00 TS 27.3592 80.3485 main 0 0 _________OP___ -1 27.4000 80.3000 TC 30 27.3185 80.3969 1 2 317
1944237N21091 1944 53 NI BB NOT_NAMED 1944-08-30 15:00:00 TS 27.4287 80.2750 main 0 0 _________PO___ -1 27.4575 80.2500 TC 30 27.4000 80.3000 1 2 314
1944237N21091 1944 53 NI BB NOT_NAMED 1944-08-30 18:00:00 TS 27.4822 80.2109 main 0 0 _________OP___ -1 27.5000 80.2000 TC 30 27.4643 80.2218 1 2 308
1944237N21091 1944 53 NI BB NOT_NAMED 1944-08-30 21:00:00 TS 27.5325 80.1287 main 0 0 _________PP___ -1 27.5500 80.1075 TC 30 27.5149 80.1499 1 2 302
1944237N21091 1944 53 NI BB NOT_NAMED 1944-08-31 00:00:00 TS 27.5790 80.0390 main 0 0 _________OP___ -1 27.6000 80.0000 TC 30 27.5581 80.0780 1 2 301
1944237N21091 1944 53 NI BB NOT_NAMED 1944-08-31 03:00:00 TS 27.6250 79.9500 main 0 0 _________PO___ -1 27.6500 79.9000 TC 30 27.6000 80.0000 1 2 301
1944237N21091 1944 53 NI BB NOT_NAMED 1944-08-31 06:00:00 TS 27.6770 79.8536 main 0 0 _________OP___ -1 27.7000 79.8000 TC 30 27.6541 79.9072 1 2 301
1944237N21091 1944 53 NI BB NOT_NAMED 1944-08-31 09:00:00 TS 27.7287 79.7538 main 0 0 _________PP___ -1 27.7500 79.7000 TC 30 27.7075 79.8075 1 2 300
1944237N21091 1944 53 NI BB NOT_NAMED 1944-08-31 12:00:00 TS 27.7786 79.6520 main 0 0 _________OP___ -1 27.8000 79.6000 TC 30 27.7572 79.7041 1 2 299
1944237N21091 1944 53 NI BB NOT_NAMED 1944-08-31 15:00:00 TS 27.8287 79.5500 main 0 0 _________PO___ -1 27.8575 79.5000 TC 30 27.8000 79.6000 1 2 296
1944237N21091 1944 53 NI BB NOT_NAMED 1944-08-31 18:00:00 TS 27.8622 79.4559 main 0 0 _________OP___ -1 27.9000 79.4000 TC 30 27.8338 79.4978 1 2 287
1944237N21091 1944 53 NI BB NOT_NAMED 1944-08-31 21:00:00 TS 27.8800 79.3585 main 0 0 _________PP___ -1 27.9100 79.3000 TC 30 27.8600 79.3975 1 2 279
1944237N21091 1944 53 NI BB NOT_NAMED 1944-09-01 00:00:00 TS 27.8875 79.2656 main 0 0 _________OP___ -1 27.9000 79.2000 TC 30 27.8813 79.2984 1 1 278
1944237N21091 1944 53 NI BB NOT_NAMED 1944-09-01 03:00:00 NR 27.9000 79.2000 main 0 __________O___ -1 TC 27.9000 79.2000 1 1 283

About IBTrACS Database

This database is a web-friendly format of International Best Track Archive for Climate Stewardship (IBTrACS), a global best track data archive curated by NOAA dating back to 1842.

Updated: 2021-11-26